76542 UUMU-UUEM
Flight info
| Callsign | 76542 |
|---|---|
| Flight time | N/A |
| Altitude | 19000 |
| Route | UUMU DCT TAREF MASUS NUBDO SIFOD KEZVU TOKNU AMLIN NERAP DCT UUEM |
| Aircraft | IL76/H-SDE3GHIJ2J3J5M1RVWXY/LB2D1 |
Departure
| Time | N/A |
|---|---|
| Airport | Chkalovskiy Air Base (UUMU) |
Arrival
| Time | 2026-04-24 14:12 |
|---|---|
| Airport | Migalovo Air Base (UUEM) |
| Time | Latitude | Longitude | Altitude | Speed | Heading |
|---|---|---|---|---|---|
| 2026-04-24 14:10 | 56.80908 | 35.65104 | 1435 ft | 197 kts | 75° |
| 2026-04-24 14:10 | 56.81087 | 35.66302 | 1598 ft | 165 kts | 75° |
| 2026-04-24 14:11 | 56.81340 | 35.67992 | 1774 ft | 128 kts | 76° |
| 2026-04-24 14:11 | 56.81569 | 35.69670 | 1654 ft | 142 kts | 77° |
| 2026-04-24 14:11 | 56.82126 | 35.73405 | 655 ft | 158 kts | 74° |
| 2026-04-24 14:12 | 56.82392 | 35.75147 | 466 ft | 111 kts | 75° |
| 2026-04-24 14:12 | 56.82544 | 35.76191 | 464 ft | 60 kts | 75° |
| 2026-04-24 14:12 | 56.82665 | 35.77016 | 456 ft | 62 kts | 75° |
| 2026-04-24 14:12 | 56.82740 | 35.77531 | 455 ft | 24 kts | 75° |
| 2026-04-24 14:13 | 56.82829 | 35.77665 | 453 ft | 13 kts | 353° |
| 2026-04-24 14:13 | 56.82904 | 35.77632 | 454 ft | 8 kts | 342° |
| 2026-04-24 14:13 | 56.82959 | 35.77600 | 454 ft | 9 kts | 345° |
| 2026-04-24 14:13 | 56.82995 | 35.77493 | 457 ft | 15 kts | 260° |
| 2026-04-24 14:14 | 56.82961 | 35.77253 | 459 ft | 18 kts | 256° |
| 2026-04-24 14:14 | 56.82933 | 35.77061 | 460 ft | 13 kts | 256° |
| 2026-04-24 14:14 | 56.82841 | 35.76484 | 463 ft | 24 kts | 249° |
| 2026-04-24 14:15 | 56.82833 | 35.76305 | 466 ft | 7 kts | 306° |
| 2026-04-24 14:15 | 56.82861 | 35.76249 | 466 ft | 5 kts | 320° |
| 2026-04-24 14:15 | 56.82872 | 35.76223 | 466 ft | 0 kts | 288° |
| 2026-04-24 14:15 | 56.82870 | 35.76190 | 466 ft | 0 kts | 231° |
| 2026-04-24 14:16 | 56.82855 | 35.76175 | 466 ft | 1 kts | 181° |
| 2026-04-24 14:16 | 56.82849 | 35.76177 | 466 ft | 0 kts | 159° |